sensor_id;sensor_type;location;lat;lon;timestamp;temperature;humidity
15690;DHT22;7945;48.816;11.506;2023-04-03T00:00:41;5.80;99.80
15690;DHT22;7945;48.816;11.506;2023-04-03T00:03:07;6.30;99.90
15690;DHT22;7945;48.816;11.506;2023-04-03T00:05:36;5.70;99.90
15690;DHT22;7945;48.816;11.506;2023-04-03T00:08:02;5.70;99.90
15690;DHT22;7945;48.816;11.506;2023-04-03T00:10:33;5.70;99.90
15690;DHT22;7945;48.816;11.506;2023-04-03T00:12:59;5.60;99.90
15690;DHT22;7945;48.816;11.506;2023-04-03T00:15:26;5.70;99.90
15690;DHT22;7945;48.816;11.506;2023-04-03T00:17:53;5.60;99.90
15690;DHT22;7945;48.816;11.506;2023-04-03T00:20:19;5.60;99.90
15690;DHT22;7945;48.816;11.506;2023-04-03T00:22:48;5.60;99.90
15690;DHT22;7945;48.816;11.506;2023-04-03T00:25:15;5.60;99.90
15690;DHT22;7945;48.816;11.506;2023-04-03T00:27:41;5.50;99.90
15690;DHT22;7945;48.816;11.506;2023-04-03T00:30:12;5.50;99.90
15690;DHT22;7945;48.816;11.506;2023-04-03T00:32:39;5.50;99.90
15690;DHT22;7945;48.816;11.506;2023-04-03T00:35:06;5.50;99.90
15690;DHT22;7945;48.816;11.506;2023-04-03T00:37:33;5.50;99.90
15690;DHT22;7945;48.816;11.506;2023-04-03T00:40:02;5.50;99.90
15690;DHT22;7945;48.816;11.506;2023-04-03T00:42:29;5.50;99.90
15690;DHT22;7945;48.816;11.506;2023-04-03T00:45:27;5.50;99.90
15690;DHT22;7945;48.816;11.506;2023-04-03T00:47:54;5.50;99.90
15690;DHT22;7945;48.816;11.506;2023-04-03T00:50:22;5.50;99.90
15690;DHT22;7945;48.816;11.506;2023-04-03T00:52:49;5.50;99.90
15690;DHT22;7945;48.816;11.506;2023-04-03T00:55:17;5.50;99.90
15690;DHT22;7945;48.816;11.506;2023-04-03T00:57:44;5.50;99.90
15690;DHT22;7945;48.816;11.506;2023-04-03T01:00:14;5.40;99.90
15690;DHT22;7945;48.816;11.506;2023-04-03T01:02:42;5.40;99.90
15690;DHT22;7945;48.816;11.506;2023-04-03T01:05:10;5.40;99.90
15690;DHT22;7945;48.816;11.506;2023-04-03T01:07:38;5.40;99.90
15690;DHT22;7945;48.816;11.506;2023-04-03T01:10:07;5.30;99.90
15690;DHT22;7945;48.816;11.506;2023-04-03T01:12:38;5.40;99.90
15690;DHT22;7945;48.816;11.506;2023-04-03T01:15:08;5.40;99.90
15690;DHT22;7945;48.816;11.506;2023-04-03T01:17:38;5.30;99.90
15690;DHT22;7945;48.816;11.506;2023-04-03T01:23:22;5.30;99.90
15690;DHT22;7945;48.816;11.506;2023-04-03T01:25:53;5.30;99.90
15690;DHT22;7945;48.816;11.506;2023-04-03T01:28:23;5.30;99.90
15690;DHT22;7945;48.816;11.506;2023-04-03T01:30:55;5.20;99.90
15690;DHT22;7945;48.816;11.506;2023-04-03T01:33:26;5.20;99.90
15690;DHT22;7945;48.816;11.506;2023-04-03T01:35:53;5.30;99.90
15690;DHT22;7945;48.816;11.506;2023-04-03T01:38:20;5.30;99.90
15690;DHT22;7945;48.816;11.506;2023-04-03T01:40:47;5.30;99.90
15690;DHT22;7945;48.816;11.506;2023-04-03T01:43:13;5.30;99.90
15690;DHT22;7945;48.816;11.506;2023-04-03T01:45:40;5.30;99.90
15690;DHT22;7945;48.816;11.506;2023-04-03T01:48:07;5.30;99.90
15690;DHT22;7945;48.816;11.506;2023-04-03T01:50:35;5.30;99.90
15690;DHT22;7945;48.816;11.506;2023-04-03T01:53:02;5.20;99.90
15690;DHT22;7945;48.816;11.506;2023-04-03T01:55:29;5.20;99.90
15690;DHT22;7945;48.816;11.506;2023-04-03T01:57:55;5.20;99.90
15690;DHT22;7945;48.816;11.506;2023-04-03T02:00:22;5.20;99.90
15690;DHT22;7945;48.816;11.506;2023-04-03T02:02:49;5.10;99.90
15690;DHT22;7945;48.816;11.506;2023-04-03T02:05:16;5.10;99.90
15690;DHT22;7945;48.816;11.506;2023-04-03T02:07:44;5.10;99.90
15690;DHT22;7945;48.816;11.506;2023-04-03T02:10:11;5.10;99.90
15690;DHT22;7945;48.816;11.506;2023-04-03T02:12:38;5.10;99.90
15690;DHT22;7945;48.816;11.506;2023-04-03T02:15:06;5.00;99.90
15690;DHT22;7945;48.816;11.506;2023-04-03T02:17:33;5.00;99.90
15690;DHT22;7945;48.816;11.506;2023-04-03T02:20:01;5.00;99.90
15690;DHT22;7945;48.816;11.506;2023-04-03T02:22:28;5.00;99.90
15690;DHT22;7945;48.816;11.506;2023-04-03T02:24:56;5.00;99.90
15690;DHT22;7945;48.816;11.506;2023-04-03T02:27:23;5.00;99.90
15690;DHT22;7945;48.816;11.506;2023-04-03T02:29:50;5.00;99.90
15690;DHT22;7945;48.816;11.506;2023-04-03T02:32:16;5.00;99.90
15690;DHT22;7945;48.816;11.506;2023-04-03T02:34:43;5.00;99.90
15690;DHT22;7945;48.816;11.506;2023-04-03T02:37:10;4.90;99.90
15690;DHT22;7945;48.816;11.506;2023-04-03T02:39:37;5.00;99.90
15690;DHT22;7945;48.816;11.506;2023-04-03T02:42:05;5.00;99.90
15690;DHT22;7945;48.816;11.506;2023-04-03T02:44:32;4.90;99.90
15690;DHT22;7945;48.816;11.506;2023-04-03T02:46:59;4.90;99.90
15690;DHT22;7945;48.816;11.506;2023-04-03T02:49:26;4.90;99.90
15690;DHT22;7945;48.816;11.506;2023-04-03T02:51:52;4.90;99.90
15690;DHT22;7945;48.816;11.506;2023-04-03T02:54:19;4.90;99.90
15690;DHT22;7945;48.816;11.506;2023-04-03T02:56:46;4.80;99.90
15690;DHT22;7945;48.816;11.506;2023-04-03T02:59:14;4.80;99.90
15690;DHT22;7945;48.816;11.506;2023-04-03T03:01:41;4.80;99.90
15690;DHT22;7945;48.816;11.506;2023-04-03T03:04:07;4.80;99.90
15690;DHT22;7945;48.816;11.506;2023-04-03T03:06:34;4.80;99.90
15690;DHT22;7945;48.816;11.506;2023-04-03T03:09:01;4.80;99.90
15690;DHT22;7945;48.816;11.506;2023-04-03T03:11:29;4.70;99.90
15690;DHT22;7945;48.816;11.506;2023-04-03T03:13:56;4.70;99.90
15690;DHT22;7945;48.816;11.506;2023-04-03T03:16:24;4.80;99.90
15690;DHT22;7945;48.816;11.506;2023-04-03T03:18:51;4.80;99.90
15690;DHT22;7945;48.816;11.506;2023-04-03T03:21:17;4.80;99.90
15690;DHT22;7945;48.816;11.506;2023-04-03T03:23:44;4.80;99.90
15690;DHT22;7945;48.816;11.506;2023-04-03T03:26:11;4.80;99.90
15690;DHT22;7945;48.816;11.506;2023-04-03T03:28:38;4.80;99.90
15690;DHT22;7945;48.816;11.506;2023-04-03T03:31:06;4.80;99.90
15690;DHT22;7945;48.816;11.506;2023-04-03T03:33:35;4.80;99.90
15690;DHT22;7945;48.816;11.506;2023-04-03T03:36:02;4.80;99.90
15690;DHT22;7945;48.816;11.506;2023-04-03T03:38:29;4.80;99.90
15690;DHT22;7945;48.816;11.506;2023-04-03T03:40:55;4.80;99.90
15690;DHT22;7945;48.816;11.506;2023-04-03T03:43:22;4.80;99.90
15690;DHT22;7945;48.816;11.506;2023-04-03T03:45:50;4.80;99.90
15690;DHT22;7945;48.816;11.506;2023-04-03T03:48:17;4.70;99.90
15690;DHT22;7945;48.816;11.506;2023-04-03T03:50:46;4.80;99.90
15690;DHT22;7945;48.816;11.506;2023-04-03T03:53:13;4.70;99.90
15690;DHT22;7945;48.816;11.506;2023-04-03T03:55:40;4.80;99.90
15690;DHT22;7945;48.816;11.506;2023-04-03T03:58:07;4.70;99.90
15690;DHT22;7945;48.816;11.506;2023-04-03T04:00:34;4.70;99.90
15690;DHT22;7945;48.816;11.506;2023-04-03T04:03:00;4.70;99.90
15690;DHT22;7945;48.816;11.506;2023-04-03T04:05:27;4.70;99.90
15690;DHT22;7945;48.816;11.506;2023-04-03T04:07:55;4.70;99.90
15690;DHT22;7945;48.816;11.506;2023-04-03T04:10:22;4.80;99.90
15690;DHT22;7945;48.816;11.506;2023-04-03T04:12:49;4.70;99.90
15690;DHT22;7945;48.816;11.506;2023-04-03T04:15:16;4.70;99.90
15690;DHT22;7945;48.816;11.506;2023-04-03T04:17:43;4.70;99.90
15690;DHT22;7945;48.816;11.506;2023-04-03T04:20:10;4.70;99.90
15690;DHT22;7945;48.816;11.506;2023-04-03T04:22:38;4.70;99.90
15690;DHT22;7945;48.816;11.506;2023-04-03T04:25:06;4.70;99.90
15690;DHT22;7945;48.816;11.506;2023-04-03T04:27:33;4.70;99.90
15690;DHT22;7945;48.816;11.506;2023-04-03T04:30:00;4.70;99.90
15690;DHT22;7945;48.816;11.506;2023-04-03T04:32:28;4.70;99.90
15690;DHT22;7945;48.816;11.506;2023-04-03T04:34:55;4.70;99.90
15690;DHT22;7945;48.816;11.506;2023-04-03T04:37:22;4.70;99.90
15690;DHT22;7945;48.816;11.506;2023-04-03T04:39:48;4.70;99.90
15690;DHT22;7945;48.816;11.506;2023-04-03T04:42:17;4.70;99.90
15690;DHT22;7945;48.816;11.506;2023-04-03T04:44:44;4.60;99.90
15690;DHT22;7945;48.816;11.506;2023-04-03T04:47:10;4.60;99.90
15690;DHT22;7945;48.816;11.506;2023-04-03T04:49:37;4.60;99.90
15690;DHT22;7945;48.816;11.506;2023-04-03T04:52:04;4.70;99.90
15690;DHT22;7945;48.816;11.506;2023-04-03T04:54:32;4.60;99.90
15690;DHT22;7945;48.816;11.506;2023-04-03T04:56:58;4.60;99.90
15690;DHT22;7945;48.816;11.506;2023-04-03T04:59:27;4.80;99.90
15690;DHT22;7945;48.816;11.506;2023-04-03T05:01:53;4.80;99.90
15690;DHT22;7945;48.816;11.506;2023-04-03T05:04:20;4.80;99.90
15690;DHT22;7945;48.816;11.506;2023-04-03T05:06:47;4.70;99.90
15690;DHT22;7945;48.816;11.506;2023-04-03T05:09:14;4.80;99.90
15690;DHT22;7945;48.816;11.506;2023-04-03T05:11:42;4.70;99.90
15690;DHT22;7945;48.816;11.506;2023-04-03T05:14:08;4.70;99.90
15690;DHT22;7945;48.816;11.506;2023-04-03T05:16:37;4.70;99.90
15690;DHT22;7945;48.816;11.506;2023-04-03T05:19:03;4.70;99.90
15690;DHT22;7945;48.816;11.506;2023-04-03T05:21:30;4.70;99.90
15690;DHT22;7945;48.816;11.506;2023-04-03T05:23:58;4.60;99.90
15690;DHT22;7945;48.816;11.506;2023-04-03T05:26:28;4.60;99.90
15690;DHT22;7945;48.816;11.506;2023-04-03T05:28:55;4.60;99.90
15690;DHT22;7945;48.816;11.506;2023-04-03T05:31:21;4.60;99.90
15690;DHT22;7945;48.816;11.506;2023-04-03T05:33:50;4.60;99.90
15690;DHT22;7945;48.816;11.506;2023-04-03T05:36:16;4.70;99.90
15690;DHT22;7945;48.816;11.506;2023-04-03T05:38:43;4.70;99.90
15690;DHT22;7945;48.816;11.506;2023-04-03T05:41:10;4.70;99.90
15690;DHT22;7945;48.816;11.506;2023-04-03T05:43:36;4.70;99.90
15690;DHT22;7945;48.816;11.506;2023-04-03T05:46:06;4.70;99.90
15690;DHT22;7945;48.816;11.506;2023-04-03T05:48:33;4.70;99.90
15690;DHT22;7945;48.816;11.506;2023-04-03T05:51:01;4.70;99.90
15690;DHT22;7945;48.816;11.506;2023-04-03T05:53:29;4.70;99.90
15690;DHT22;7945;48.816;11.506;2023-04-03T05:55:58;4.70;99.90
15690;DHT22;7945;48.816;11.506;2023-04-03T05:58:24;4.70;99.90
15690;DHT22;7945;48.816;11.506;2023-04-03T06:00:51;4.70;99.90
15690;DHT22;7945;48.816;11.506;2023-04-03T06:03:18;4.70;99.90
15690;DHT22;7945;48.816;11.506;2023-04-03T06:05:45;4.70;99.90
15690;DHT22;7945;48.816;11.506;2023-04-03T06:08:13;4.70;99.90
15690;DHT22;7945;48.816;11.506;2023-04-03T06:10:40;4.70;99.90
15690;DHT22;7945;48.816;11.506;2023-04-03T06:15:19;4.70;99.90
15690;DHT22;7945;48.816;11.506;2023-04-03T06:17:47;4.70;99.90
15690;DHT22;7945;48.816;11.506;2023-04-03T06:20:14;4.70;99.90
15690;DHT22;7945;48.816;11.506;2023-04-03T06:22:41;4.80;99.90
15690;DHT22;7945;48.816;11.506;2023-04-03T06:25:09;4.80;99.90
15690;DHT22;7945;48.816;11.506;2023-04-03T06:27:36;4.80;99.90
15690;DHT22;7945;48.816;11.506;2023-04-03T06:30:04;4.80;99.90
15690;DHT22;7945;48.816;11.506;2023-04-03T06:32:33;4.90;99.90
15690;DHT22;7945;48.816;11.506;2023-04-03T06:34:59;4.90;99.90
15690;DHT22;7945;48.816;11.506;2023-04-03T06:37:26;5.00;99.90
15690;DHT22;7945;48.816;11.506;2023-04-03T06:39:54;5.00;99.90
15690;DHT22;7945;48.816;11.506;2023-04-03T06:42:21;5.00;99.90
15690;DHT22;7945;48.816;11.506;2023-04-03T06:44:48;5.00;99.90
15690;DHT22;7945;48.816;11.506;2023-04-03T06:47:15;5.00;99.90
15690;DHT22;7945;48.816;11.506;2023-04-03T06:49:44;5.00;99.90
15690;DHT22;7945;48.816;11.506;2023-04-03T06:52:11;5.00;99.90
15690;DHT22;7945;48.816;11.506;2023-04-03T06:54:38;5.00;99.90
15690;DHT22;7945;48.816;11.506;2023-04-03T06:57:06;5.00;99.90
15690;DHT22;7945;48.816;11.506;2023-04-03T06:59:33;5.00;99.90
15690;DHT22;7945;48.816;11.506;2023-04-03T07:02:00;5.10;99.90
15690;DHT22;7945;48.816;11.506;2023-04-03T07:04:27;5.20;99.90
15690;DHT22;7945;48.816;11.506;2023-04-03T07:06:55;5.20;99.90
15690;DHT22;7945;48.816;11.506;2023-04-03T07:09:22;5.20;99.90
15690;DHT22;7945;48.816;11.506;2023-04-03T07:11:48;5.20;99.90
15690;DHT22;7945;48.816;11.506;2023-04-03T07:14:15;5.20;99.90
15690;DHT22;7945;48.816;11.506;2023-04-03T07:16:42;5.30;99.90
15690;DHT22;7945;48.816;11.506;2023-04-03T07:19:09;5.30;99.90
15690;DHT22;7945;48.816;11.506;2023-04-03T07:21:35;5.30;99.90
15690;DHT22;7945;48.816;11.506;2023-04-03T07:24:04;5.30;99.90
15690;DHT22;7945;48.816;11.506;2023-04-03T07:26:31;5.30;99.90
15690;DHT22;7945;48.816;11.506;2023-04-03T07:28:57;5.30;99.90
15690;DHT22;7945;48.816;11.506;2023-04-03T07:31:25;5.30;99.90
15690;DHT22;7945;48.816;11.506;2023-04-03T07:33:51;5.30;99.90
15690;DHT22;7945;48.816;11.506;2023-04-03T07:36:20;5.30;99.90
15690;DHT22;7945;48.816;11.506;2023-04-03T07:38:47;5.40;99.90
15690;DHT22;7945;48.816;11.506;2023-04-03T07:41:17;5.40;99.90
15690;DHT22;7945;48.816;11.506;2023-04-03T07:43:46;5.50;99.90
15690;DHT22;7945;48.816;11.506;2023-04-03T07:46:15;5.50;99.90
15690;DHT22;7945;48.816;11.506;2023-04-03T07:48:43;5.60;99.90
15690;DHT22;7945;48.816;11.506;2023-04-03T07:51:10;5.60;99.60
15690;DHT22;7945;48.816;11.506;2023-04-03T07:53:37;5.60;99.50
15690;DHT22;7945;48.816;11.506;2023-04-03T07:56:04;5.60;99.30
15690;DHT22;7945;48.816;11.506;2023-04-03T07:58:32;5.60;99.60
15690;DHT22;7945;48.816;11.506;2023-04-03T08:00:59;5.60;99.10
15690;DHT22;7945;48.816;11.506;2023-04-03T08:03:26;5.60;99.20
15690;DHT22;7945;48.816;11.506;2023-04-03T08:05:52;5.50;99.00
15690;DHT22;7945;48.816;11.506;2023-04-03T08:08:21;5.60;99.50
15690;DHT22;7945;48.816;11.506;2023-04-03T08:10:49;5.60;99.30
15690;DHT22;7945;48.816;11.506;2023-04-03T08:13:16;5.70;99.00
15690;DHT22;7945;48.816;11.506;2023-04-03T08:15:44;5.70;98.90
15690;DHT22;7945;48.816;11.506;2023-04-03T08:18:11;5.80;98.70
15690;DHT22;7945;48.816;11.506;2023-04-03T08:20:38;5.80;98.50
15690;DHT22;7945;48.816;11.506;2023-04-03T08:23:06;5.80;98.50
15690;DHT22;7945;48.816;11.506;2023-04-03T08:25:33;5.90;98.30
15690;DHT22;7945;48.816;11.506;2023-04-03T08:28:00;5.90;98.10
15690;DHT22;7945;48.816;11.506;2023-04-03T08:30:27;6.00;98.30
15690;DHT22;7945;48.816;11.506;2023-04-03T08:32:55;6.00;98.50
15690;DHT22;7945;48.816;11.506;2023-04-03T08:35:22;6.10;98.10
15690;DHT22;7945;48.816;11.506;2023-04-03T08:37:49;6.20;98.00
15690;DHT22;7945;48.816;11.506;2023-04-03T08:40:16;6.30;97.70
15690;DHT22;7945;48.816;11.506;2023-04-03T08:42:51;6.30;97.70
15690;DHT22;7945;48.816;11.506;2023-04-03T08:45:26;6.30;97.60
15690;DHT22;7945;48.816;11.506;2023-04-03T08:48:01;6.20;97.60
15690;DHT22;7945;48.816;11.506;2023-04-03T08:50:35;6.30;97.50
15690;DHT22;7945;48.816;11.506;2023-04-03T08:53:04;6.40;97.70
15690;DHT22;7945;48.816;11.506;2023-04-03T08:55:36;6.50;97.50
15690;DHT22;7945;48.816;11.506;2023-04-03T08:58:05;6.60;97.20
15690;DHT22;7945;48.816;11.506;2023-04-03T09:00:40;6.70;97.00
15690;DHT22;7945;48.816;11.506;2023-04-03T09:03:14;6.80;96.80
15690;DHT22;7945;48.816;11.506;2023-04-03T09:05:45;6.80;97.10
15690;DHT22;7945;48.816;11.506;2023-04-03T09:08:21;6.80;96.70
15690;DHT22;7945;48.816;11.506;2023-04-03T09:10:49;6.70;96.60
15690;DHT22;7945;48.816;11.506;2023-04-03T09:13:26;6.70;96.70
15690;DHT22;7945;48.816;11.506;2023-04-03T09:15:57;6.80;95.80
15690;DHT22;7945;48.816;11.506;2023-04-03T09:18:28;6.70;95.70
15690;DHT22;7945;48.816;11.506;2023-04-03T09:21:03;6.70;96.00
15690;DHT22;7945;48.816;11.506;2023-04-03T09:23:36;6.70;96.20
15690;DHT22;7945;48.816;11.506;2023-04-03T09:26:09;6.70;96.50
15690;DHT22;7945;48.816;11.506;2023-04-03T09:28:39;6.70;95.90
15690;DHT22;7945;48.816;11.506;2023-04-03T09:31:16;6.70;96.20
15690;DHT22;7945;48.816;11.506;2023-04-03T09:33:45;6.80;95.90
15690;DHT22;7945;48.816;11.506;2023-04-03T09:36:13;6.70;95.20
15690;DHT22;7945;48.816;11.506;2023-04-03T09:38:39;6.70;95.10
15690;DHT22;7945;48.816;11.506;2023-04-03T09:41:15;6.80;95.40
15690;DHT22;7945;48.816;11.506;2023-04-03T09:43:52;6.90;95.30
15690;DHT22;7945;48.816;11.506;2023-04-03T09:46:28;6.80;94.50
15690;DHT22;7945;48.816;11.506;2023-04-03T09:48:58;6.70;94.90
15690;DHT22;7945;48.816;11.506;2023-04-03T09:51:26;6.70;95.30
15690;DHT22;7945;48.816;11.506;2023-04-03T09:53:54;6.70;94.60
15690;DHT22;7945;48.816;11.506;2023-04-03T09:56:24;6.70;94.70
15690;DHT22;7945;48.816;11.506;2023-04-03T09:59:05;6.70;93.50
15690;DHT22;7945;48.816;11.506;2023-04-03T10:01:34;6.80;93.50
15690;DHT22;7945;48.816;11.506;2023-04-03T10:04:06;6.80;93.60
15690;DHT22;7945;48.816;11.506;2023-04-03T10:06:35;6.90;93.30
15690;DHT22;7945;48.816;11.506;2023-04-03T10:09:05;6.80;93.60
15690;DHT22;7945;48.816;11.506;2023-04-03T10:11:33;6.80;92.30
15690;DHT22;7945;48.816;11.506;2023-04-03T10:14:00;6.90;93.10
15690;DHT22;7945;48.816;11.506;2023-04-03T10:16:36;6.90;92.70
15690;DHT22;7945;48.816;11.506;2023-04-03T10:19:28;7.00;92.80
15690;DHT22;7945;48.816;11.506;2023-04-03T10:21:59;7.00;91.90
15690;DHT22;7945;48.816;11.506;2023-04-03T10:24:34;7.00;91.60
15690;DHT22;7945;48.816;11.506;2023-04-03T10:27:06;7.00;91.40
15690;DHT22;7945;48.816;11.506;2023-04-03T10:29:40;7.00;90.70
15690;DHT22;7945;48.816;11.506;2023-04-03T10:35:04;7.10;91.30
15690;DHT22;7945;48.816;11.506;2023-04-03T10:37:42;7.20;90.60
15690;DHT22;7945;48.816;11.506;2023-04-03T10:40:22;7.30;90.50
15690;DHT22;7945;48.816;11.506;2023-04-03T10:42:53;7.40;90.00
15690;DHT22;7945;48.816;11.506;2023-04-03T10:45:26;7.40;89.30
15690;DHT22;7945;48.816;11.506;2023-04-03T10:48:03;7.50;89.10
15690;DHT22;7945;48.816;11.506;2023-04-03T10:50:42;7.40;91.00
15690;DHT22;7945;48.816;11.506;2023-04-03T10:53:19;7.30;89.60
15690;DHT22;7945;48.816;11.506;2023-04-03T10:55:53;7.30;88.90
15690;DHT22;7945;48.816;11.506;2023-04-03T10:58:26;7.30;87.40
15690;DHT22;7945;48.816;11.506;2023-04-03T11:00:59;7.30;86.40
15690;DHT22;7945;48.816;11.506;2023-04-03T11:03:30;7.50;88.70
15690;DHT22;7945;48.816;11.506;2023-04-03T11:06:02;7.60;86.20
15690;DHT22;7945;48.816;11.506;2023-04-03T11:08:34;7.80;84.50
15690;DHT22;7945;48.816;11.506;2023-04-03T11:11:06;8.10;81.60
15690;DHT22;7945;48.816;11.506;2023-04-03T11:13:37;8.30;81.40
15690;DHT22;7945;48.816;11.506;2023-04-03T11:16:08;8.50;79.80
15690;DHT22;7945;48.816;11.506;2023-04-03T11:18:39;8.80;81.80
15690;DHT22;7945;48.816;11.506;2023-04-03T11:21:12;9.10;78.60
15690;DHT22;7945;48.816;11.506;2023-04-03T11:23:41;9.30;74.50
15690;DHT22;7945;48.816;11.506;2023-04-03T11:26:11;9.30;74.40
15690;DHT22;7945;48.816;11.506;2023-04-03T11:28:39;9.30;74.10
15690;DHT22;7945;48.816;11.506;2023-04-03T11:31:13;9.20;73.70
15690;DHT22;7945;48.816;11.506;2023-04-03T11:33:51;9.10;74.20
15690;DHT22;7945;48.816;11.506;2023-04-03T11:36:23;8.90;73.20
15690;DHT22;7945;48.816;11.506;2023-04-03T11:38:54;8.70;72.80
15690;DHT22;7945;48.816;11.506;2023-04-03T11:41:27;8.70;74.00
15690;DHT22;7945;48.816;11.506;2023-04-03T11:43:59;8.90;74.10
15690;DHT22;7945;48.816;11.506;2023-04-03T11:46:52;8.90;72.60
15690;DHT22;7945;48.816;11.506;2023-04-03T11:49:56;8.80;74.00
15690;DHT22;7945;48.816;11.506;2023-04-03T11:52:56;8.70;73.50
15690;DHT22;7945;48.816;11.506;2023-04-03T11:55:44;8.50;73.30
15690;DHT22;7945;48.816;11.506;2023-04-03T11:58:13;8.60;72.00
15690;DHT22;7945;48.816;11.506;2023-04-03T12:00:55;8.60;72.40
15690;DHT22;7945;48.816;11.506;2023-04-03T12:10:19;8.90;70.20
15690;DHT22;7945;48.816;11.506;2023-04-03T12:12:56;8.80;70.10
15690;DHT22;7945;48.816;11.506;2023-04-03T12:15:54;8.60;69.20
15690;DHT22;7945;48.816;11.506;2023-04-03T12:18:56;8.60;68.80
15690;DHT22;7945;48.816;11.506;2023-04-03T12:21:49;8.70;68.50
15690;DHT22;7945;48.816;11.506;2023-04-03T12:24:25;8.80;68.00
15690;DHT22;7945;48.816;11.506;2023-04-03T12:27:05;8.80;69.20
15690;DHT22;7945;48.816;11.506;2023-04-03T12:29:39;8.80;66.60
15690;DHT22;7945;48.816;11.506;2023-04-03T12:32:17;8.70;66.30
15690;DHT22;7945;48.816;11.506;2023-04-03T12:35:01;8.50;65.00
15690;DHT22;7945;48.816;11.506;2023-04-03T12:37:44;8.50;67.60
15690;DHT22;7945;48.816;11.506;2023-04-03T12:40:24;8.50;65.60
15690;DHT22;7945;48.816;11.506;2023-04-03T12:43:17;8.80;65.90
15690;DHT22;7945;48.816;11.506;2023-04-03T12:45:49;9.00;67.00
15690;DHT22;7945;48.816;11.506;2023-04-03T12:48:22;9.30;67.30
15690;DHT22;7945;48.816;11.506;2023-04-03T12:50:50;9.20;65.20
15690;DHT22;7945;48.816;11.506;2023-04-03T12:53:19;9.00;63.00
15690;DHT22;7945;48.816;11.506;2023-04-03T12:55:49;8.90;62.00
15690;DHT22;7945;48.816;11.506;2023-04-03T12:58:24;9.00;63.50
15690;DHT22;7945;48.816;11.506;2023-04-03T13:00:59;9.10;64.00
15690;DHT22;7945;48.816;11.506;2023-04-03T13:03:27;9.10;63.80
15690;DHT22;7945;48.816;11.506;2023-04-03T13:05:58;9.10;63.30
15690;DHT22;7945;48.816;11.506;2023-04-03T13:08:26;9.10;64.80
15690;DHT22;7945;48.816;11.506;2023-04-03T13:10:58;9.10;67.00
15690;DHT22;7945;48.816;11.506;2023-04-03T13:13:27;9.20;63.80
15690;DHT22;7945;48.816;11.506;2023-04-03T13:15:54;9.20;63.60
15690;DHT22;7945;48.816;11.506;2023-04-03T13:18:23;9.20;62.80
15690;DHT22;7945;48.816;11.506;2023-04-03T13:20:51;9.10;61.50
15690;DHT22;7945;48.816;11.506;2023-04-03T13:23:20;9.00;64.40
15690;DHT22;7945;48.816;11.506;2023-04-03T13:25:48;9.10;62.40
15690;DHT22;7945;48.816;11.506;2023-04-03T13:28:19;9.20;60.60
15690;DHT22;7945;48.816;11.506;2023-04-03T13:30:59;9.20;61.30
15690;DHT22;7945;48.816;11.506;2023-04-03T13:33:31;9.20;59.60
15690;DHT22;7945;48.816;11.506;2023-04-03T13:36:02;9.30;61.30
15690;DHT22;7945;48.816;11.506;2023-04-03T13:38:30;9.30;63.80
15690;DHT22;7945;48.816;11.506;2023-04-03T13:41:01;9.20;63.80
15690;DHT22;7945;48.816;11.506;2023-04-03T13:43:30;9.10;62.10
15690;DHT22;7945;48.816;11.506;2023-04-03T13:46:05;9.10;62.70
15690;DHT22;7945;48.816;11.506;2023-04-03T13:48:38;9.20;65.10
15690;DHT22;7945;48.816;11.506;2023-04-03T13:51:16;9.40;61.20
15690;DHT22;7945;48.816;11.506;2023-04-03T13:53:46;9.50;60.50
15690;DHT22;7945;48.816;11.506;2023-04-03T13:56:19;9.60;60.00
15690;DHT22;7945;48.816;11.506;2023-04-03T13:58:57;9.60;60.00
15690;DHT22;7945;48.816;11.506;2023-04-03T14:01:34;9.50;59.80
15690;DHT22;7945;48.816;11.506;2023-04-03T14:04:12;9.50;62.00
15690;DHT22;7945;48.816;11.506;2023-04-03T14:06:39;9.50;61.00
15690;DHT22;7945;48.816;11.506;2023-04-03T14:09:06;9.40;62.40
15690;DHT22;7945;48.816;11.506;2023-04-03T14:11:34;9.20;62.00
15690;DHT22;7945;48.816;11.506;2023-04-03T14:14:05;9.00;60.90
15690;DHT22;7945;48.816;11.506;2023-04-03T14:16:38;8.90;61.30
15690;DHT22;7945;48.816;11.506;2023-04-03T14:19:06;8.80;61.00
15690;DHT22;7945;48.816;11.506;2023-04-03T14:21:33;8.80;60.00
15690;DHT22;7945;48.816;11.506;2023-04-03T14:24:00;8.90;62.10
15690;DHT22;7945;48.816;11.506;2023-04-03T14:26:28;9.00;61.80
15690;DHT22;7945;48.816;11.506;2023-04-03T14:28:55;9.10;62.30
15690;DHT22;7945;48.816;11.506;2023-04-03T14:31:23;9.10;61.80
15690;DHT22;7945;48.816;11.506;2023-04-03T14:33:51;9.00;62.70
15690;DHT22;7945;48.816;11.506;2023-04-03T14:36:20;9.00;62.20
15690;DHT22;7945;48.816;11.506;2023-04-03T14:38:48;9.00;64.40
15690;DHT22;7945;48.816;11.506;2023-04-03T14:41:18;9.00;62.50
15690;DHT22;7945;48.816;11.506;2023-04-03T14:43:46;9.00;62.20
15690;DHT22;7945;48.816;11.506;2023-04-03T14:46:14;8.90;62.80
15690;DHT22;7945;48.816;11.506;2023-04-03T14:48:42;8.80;63.30
15690;DHT22;7945;48.816;11.506;2023-04-03T14:51:12;8.70;63.90
15690;DHT22;7945;48.816;11.506;2023-04-03T14:53:40;8.50;63.50
15690;DHT22;7945;48.816;11.506;2023-04-03T14:56:12;8.50;63.50
15690;DHT22;7945;48.816;11.506;2023-04-03T14:58:39;8.50;65.50
15690;DHT22;7945;48.816;11.506;2023-04-03T15:01:06;8.70;66.20
15690;DHT22;7945;48.816;11.506;2023-04-03T15:03:32;8.80;61.40
15690;DHT22;7945;48.816;11.506;2023-04-03T15:05:59;8.80;60.50
15690;DHT22;7945;48.816;11.506;2023-04-03T15:08:28;8.80;60.20
15690;DHT22;7945;48.816;11.506;2023-04-03T15:10:56;8.60;60.10
15690;DHT22;7945;48.816;11.506;2023-04-03T15:13:24;8.50;60.50
15690;DHT22;7945;48.816;11.506;2023-04-03T15:15:51;8.50;61.50
15690;DHT22;7945;48.816;11.506;2023-04-03T15:18:20;8.70;60.60
15690;DHT22;7945;48.816;11.506;2023-04-03T15:20:48;8.80;60.90
15690;DHT22;7945;48.816;11.506;2023-04-03T15:23:15;9.00;60.60
15690;DHT22;7945;48.816;11.506;2023-04-03T15:25:45;9.10;60.10
15690;DHT22;7945;48.816;11.506;2023-04-03T15:28:18;9.20;59.90
15690;DHT22;7945;48.816;11.506;2023-04-03T15:30:46;9.20;59.60
15690;DHT22;7945;48.816;11.506;2023-04-03T15:33:13;9.10;61.90
15690;DHT22;7945;48.816;11.506;2023-04-03T15:35:41;9.00;61.90
15690;DHT22;7945;48.816;11.506;2023-04-03T15:38:08;8.80;63.30
15690;DHT22;7945;48.816;11.506;2023-04-03T15:40:34;8.60;62.10
15690;DHT22;7945;48.816;11.506;2023-04-03T15:43:03;8.50;62.60
15690;DHT22;7945;48.816;11.506;2023-04-03T15:45:31;8.40;63.30
15690;DHT22;7945;48.816;11.506;2023-04-03T15:47:58;8.30;63.00
15690;DHT22;7945;48.816;11.506;2023-04-03T15:50:25;8.20;62.60
15690;DHT22;7945;48.816;11.506;2023-04-03T15:52:52;8.10;63.40
15690;DHT22;7945;48.816;11.506;2023-04-03T15:55:20;8.00;63.30
15690;DHT22;7945;48.816;11.506;2023-04-03T15:57:47;8.00;64.00
15690;DHT22;7945;48.816;11.506;2023-04-03T16:00:16;8.10;64.60
15690;DHT22;7945;48.816;11.506;2023-04-03T16:02:45;8.10;63.70
15690;DHT22;7945;48.816;11.506;2023-04-03T16:05:13;8.10;63.40
15690;DHT22;7945;48.816;11.506;2023-04-03T16:07:42;8.10;63.40
15690;DHT22;7945;48.816;11.506;2023-04-03T16:10:10;8.20;63.70
15690;DHT22;7945;48.816;11.506;2023-04-03T16:12:37;8.20;64.10
15690;DHT22;7945;48.816;11.506;2023-04-03T16:15:05;8.10;64.10